clima

HORA PREDICCIÓN TEMPERATURA VIENTO HUMEDAD
2020-01-22 01:00:00 Nublado 23 1.95 0.85
2020-01-22 02:00:00 Nublado 23 1.82 0.86
2020-01-22 03:00:00 Nublado 23 2.02 0.87
2020-01-22 04:00:00 Nublado 23 2.12 0.89
2020-01-22 05:00:00 Nublado 23 2.03 0.9
2020-01-22 06:00:00 Nublado 23 1.56 0.91
2020-01-22 07:00:00 Nublado 23 1.43 0.91
2020-01-22 08:00:00 Nublado 23 1.43 0.91
2020-01-22 09:00:00 Nublado 23 1.77 0.93
2020-01-22 10:00:00 Nublado 24 2.38 0.93
2020-01-22 11:00:00 Nublado 24 3.19 0.91
2020-01-22 12:00:00 Nublado 26 4.43 0.86
2020-01-22 13:00:00 Nublado 27 5.66 0.8
2020-01-22 14:00:00 Nublado 28 6.78 0.76
2020-01-22 15:00:00 Nublado 28 7.65 0.74
2020-01-22 16:00:00 Nublado 28 7.54 0.73
2020-01-22 17:00:00 Nublado 27 7.13 0.74
2020-01-22 18:00:00 Nublado 26 6.19 0.75
2020-01-22 19:00:00 Nublado 26 5.19 0.78
2020-01-22 20:00:00 Nublado 25 4.03 0.81
2020-01-22 21:00:00 Nublado 25 3.15 0.82
2020-01-22 22:00:00 Nublado 25 2.67 0.83
2020-01-22 23:00:00 Nublado 24 2.05 0.83

Mesón de informaciones

(56 65) 229 4161

Horario

24 horas del día.

Edificio Terminal de pasajeros,

Aeropuerto El Tepual Puerto Montt

Región de los Lagos, Chile.